Time;durP1;ratioP1;P1;durP2;ratioP2;P2;SDS_P1;SDS_P2;PMS_P1;PMS_P2;Temp;Humidity;BMP_temperature;BMP_pressure;BME280_temperature;BME280_humidity;BME280_pressure;Samples;Min_cycle;Max_cycle;Signal;HPM_P1;HPM_P2
2023/09/07 00:04:49;;;;;;;;;;;18.90;99.90;;;;;;21074031;28;19985;-76
2023/09/07 00:14:50;;;;;;;;;;;18.70;99.90;;;;;;21128700;28;19915;-75
2023/09/07 00:24:51;;;;;;;;;;;18.50;99.90;;;;;;21147008;28;20473;-74
2023/09/07 00:34:51;;;;;;;;;;;18.30;99.90;;;;;;21072305;28;20389;-75
2023/09/07 00:44:53;;;;;;;;;;;18.10;99.90;;;;;;21072508;28;19916;-75
2023/09/07 00:54:54;;;;;;;;;;;17.90;99.90;;;;;;21071473;28;19919;-75
2023/09/07 01:04:54;;;;;;;;;;;17.90;99.90;;;;;;21051134;28;19916;-75
2023/09/07 01:14:55;;;;;;;;;;;18.00;99.90;;;;;;21068213;28;19912;-75
2023/09/07 01:24:57;;;;;;;;;;;18.00;99.90;;;;;;21066501;28;20009;-75
2023/09/07 01:34:58;;;;;;;;;;;17.90;99.90;;;;;;21086454;28;19912;-75
2023/09/07 01:44:58;;;;;;;;;;;17.70;99.90;;;;;;21067727;28;19974;-75
2023/09/07 01:54:59;;;;;;;;;;;17.40;99.90;;;;;;21085543;28;19912;-75
2023/09/07 02:05:00;;;;;;;;;;;17.30;99.90;;;;;;21065987;28;19972;-75
2023/09/07 02:15:02;;;;;;;;;;;17.40;99.90;;;;;;21083478;28;20057;-75
2023/09/07 02:25:05;;;;;;;;;;;17.20;99.90;;;;;;21136294;28;20385;-75
2023/09/07 02:35:08;;;;;;;;;;;17.10;99.90;;;;;;21148609;28;20451;-75
2023/09/07 02:45:10;;;;;;;;;;;17.00;99.90;;;;;;21146190;28;19916;-75
2023/09/07 02:55:11;;;;;;;;;;;17.00;99.90;;;;;;21161342;28;19912;-75
2023/09/07 03:05:12;;;;;;;;;;;16.80;99.90;;;;;;21141204;28;19923;-75
2023/09/07 03:15:13;;;;;;;;;;;16.70;99.90;;;;;;21163950;28;20019;-75
2023/09/07 03:25:15;;;;;;;;;;;16.40;99.90;;;;;;21141250;28;20321;-75
2023/09/07 03:35:16;;;;;;;;;;;16.40;99.90;;;;;;21138674;28;19915;-75
2023/09/07 03:45:17;;;;;;;;;;;16.40;99.90;;;;;;21142228;28;20240;-75
2023/09/07 03:55:18;;;;;;;;;;;16.30;99.90;;;;;;21104385;28;19912;-75
2023/09/07 04:05:19;;;;;;;;;;;16.00;99.90;;;;;;21160911;28;19922;-75
2023/09/07 04:15:20;;;;;;;;;;;15.70;99.90;;;;;;21141940;28;19918;-75
2023/09/07 04:25:20;;;;;;;;;;;15.60;99.90;;;;;;21140606;28;20229;-75
2023/09/07 04:35:26;;;;;;;;;;;15.50;99.90;;;;;;21139802;28;19918;-75
2023/09/07 04:45:27;;;;;;;;;;;15.60;99.90;;;;;;21157813;28;19922;-75
2023/09/07 04:55:27;;;;;;;;;;;15.60;99.90;;;;;;21162599;28;20323;-74
2023/09/07 05:05:28;;;;;;;;;;;15.40;99.90;;;;;;21153749;28;19971;-75
2023/09/07 05:15:29;;;;;;;;;;;15.20;99.90;;;;;;21153881;28;19915;-75
2023/09/07 05:25:30;;;;;;;;;;;15.40;99.90;;;;;;21133920;28;19968;-75
2023/09/07 05:35:32;;;;;;;;;;;15.60;99.90;;;;;;21149491;28;19922;-75
2023/09/07 05:45:36;;;;;;;;;;;15.90;99.90;;;;;;21135150;28;20052;-75
2023/09/07 05:55:37;;;;;;;;;;;16.20;99.90;;;;;;21133844;28;19912;-75
2023/09/07 06:05:39;;;;;;;;;;;16.40;99.90;;;;;;21136066;28;19923;-74
2023/09/07 06:15:42;;;;;;;;;;;16.70;99.90;;;;;;21136916;28;19912;-75
2023/09/07 06:25:43;;;;;;;;;;;17.20;99.90;;;;;;21108296;28;19922;-75
2023/09/07 06:35:44;;;;;;;;;;;17.70;99.90;;;;;;21137996;28;19990;-75
2023/09/07 06:45:44;;;;;;;;;;;18.30;99.90;;;;;;21152508;28;19937;-75
2023/09/07 06:55:45;;;;;;;;;;;18.90;99.90;;;;;;21147334;28;19916;-75
2023/09/07 07:05:46;;;;;;;;;;;19.00;99.90;;;;;;21146056;28;20346;-75
2023/09/07 07:15:47;;;;;;;;;;;19.70;99.90;;;;;;21132817;28;19955;-74
2023/09/07 07:25:48;;;;;;;;;;;19.90;99.90;;;;;;21135872;28;20297;-74
2023/09/07 07:35:49;;;;;;;;;;;19.70;99.90;;;;;;21160355;28;19954;-74
2023/09/07 07:45:51;;;;;;;;;;;20.40;99.90;;;;;;21146523;28;19961;-74
2023/09/07 07:55:52;;;;;;;;;;;21.60;99.90;;;;;;21140002;28;19980;-75
2023/09/07 08:05:55;;;;;;;;;;;22.60;99.90;;;;;;21139703;28;19915;-75
2023/09/07 08:15:56;;;;;;;;;;;22.40;99.90;;;;;;21131251;28;19962;-74
2023/09/07 08:25:58;;;;;;;;;;;23.20;99.90;;;;;;21133357;28;19963;-75
2023/09/07 08:36:01;;;;;;;;;;;23.60;99.90;;;;;;21130876;28;19982;-74
2023/09/07 08:46:09;;;;;;;;;;;24.80;99.90;;;;;;21154490;28;20034;-74
2023/09/07 08:56:10;;;;;;;;;;;24.70;99.90;;;;;;21132502;28;19912;-74
2023/09/07 09:06:12;;;;;;;;;;;25.10;99.90;;;;;;21138689;28;19926;-74
2023/09/07 09:16:13;;;;;;;;;;;26.80;99.90;;;;;;21153254;28;19912;-74
2023/09/07 09:26:13;;;;;;;;;;;27.30;99.90;;;;;;21101222;28;20427;-74
2023/09/07 09:36:14;;;;;;;;;;;27.30;99.90;;;;;;21136285;27;20002;-75
2023/09/07 09:46:15;;;;;;;;;;;28.20;99.90;;;;;;21157142;28;19927;-75
2023/09/07 09:56:17;;;;;;;;;;;29.70;99.90;;;;;;21151177;28;19912;-75
2023/09/07 10:06:18;;;;;;;;;;;29.00;99.90;;;;;;21096606;28;19922;-75
2023/09/07 10:16:19;;;;;;;;;;;29.80;99.90;;;;;;21132414;28;19912;-75
2023/09/07 10:26:23;;;;;;;;;;;30.10;99.90;;;;;;21112200;28;19920;-75
2023/09/07 10:36:25;;;;;;;;;;;30.10;99.90;;;;;;21082461;28;19938;-75
2023/09/07 10:46:25;;;;;;;;;;;30.80;99.90;;;;;;21151688;28;19915;-74
2023/09/07 10:56:26;;;;;;;;;;;30.90;99.90;;;;;;21164854;28;19912;-75
2023/09/07 11:06:27;;;;;;;;;;;30.90;99.90;;;;;;21143236;28;20454;-75
2023/09/07 11:16:28;;;;;;;;;;;30.80;99.90;;;;;;21162017;28;20390;-74
2023/09/07 11:26:29;;;;;;;;;;;30.30;99.90;;;;;;21139621;28;19922;-75
2023/09/07 11:36:30;;;;;;;;;;;29.70;99.90;;;;;;21161692;28;19951;-75
2023/09/07 11:46:30;;;;;;;;;;;31.60;99.90;;;;;;21142947;28;20267;-74
2023/09/07 11:56:31;;;;;;;;;;;31.80;99.90;;;;;;21100051;28;19915;-74
2023/09/07 12:06:32;;;;;;;;;;;32.10;97.50;;;;;;21074663;28;19971;-74
2023/09/07 12:16:32;;;;;;;;;;;31.60;99.20;;;;;;21081702;28;19963;-75
2023/09/07 12:26:33;;;;;;;;;;;32.40;98.20;;;;;;21125141;28;19915;-75
2023/09/07 12:36:34;;;;;;;;;;;31.60;98.40;;;;;;21140208;28;19959;-75
2023/09/07 12:46:37;;;;;;;;;;;32.70;96.10;;;;;;21141202;28;20397;-74
2023/09/07 12:56:37;;;;;;;;;;;33.20;95.10;;;;;;21078003;28;20421;-75
2023/09/07 13:06:38;;;;;;;;;;;33.70;94.60;;;;;;21103134;28;19920;-75
2023/09/07 13:16:39;;;;;;;;;;;33.30;93.70;;;;;;21141893;28;19938;-75
2023/09/07 13:26:39;;;;;;;;;;;32.30;94.10;;;;;;21088632;28;19923;-75
2023/09/07 13:36:40;;;;;;;;;;;32.80;94.20;;;;;;21088295;28;20033;-75
2023/09/07 13:46:41;;;;;;;;;;;32.20;95.50;;;;;;21178305;28;20263;-75
2023/09/07 13:56:44;;;;;;;;;;;31.70;93.50;;;;;;21170061;28;19916;-75
2023/09/07 14:06:45;;;;;;;;;;;31.90;93.80;;;;;;21169426;28;19928;-75
2023/09/07 14:16:46;;;;;;;;;;;31.60;94.30;;;;;;21150977;28;20369;-75
2023/09/07 14:26:46;;;;;;;;;;;32.10;94.40;;;;;;21135429;28;19915;-75
2023/09/07 14:36:47;;;;;;;;;;;31.70;93.60;;;;;;21171892;28;19912;-75
2023/09/07 14:46:50;;;;;;;;;;;31.80;93.70;;;;;;21156354;28;19915;-75
2023/09/07 14:56:50;;;;;;;;;;;32.30;92.80;;;;;;21146279;28;19995;-74
2023/09/07 15:06:51;;;;;;;;;;;32.00;94.40;;;;;;21154353;28;19958;-75
2023/09/07 15:16:52;;;;;;;;;;;32.60;94.70;;;;;;21130149;28;20378;-75
2023/09/07 15:26:53;;;;;;;;;;;32.10;93.90;;;;;;21135164;28;19923;-76
2023/09/07 15:36:53;;;;;;;;;;;31.80;94.20;;;;;;21148426;28;19912;-76
2023/09/07 15:46:57;;;;;;;;;;;31.70;94.50;;;;;;21143300;28;19919;-76
2023/09/07 15:56:59;;;;;;;;;;;31.80;94.10;;;;;;21150946;28;19912;-75
2023/09/07 16:06:59;;;;;;;;;;;30.50;95.90;;;;;;21140754;28;19915;-75
2023/09/07 16:17:00;;;;;;;;;;;30.10;96.20;;;;;;21148794;28;19958;-76
2023/09/07 16:27:01;;;;;;;;;;;29.80;98.00;;;;;;21147666;28;19915;-76
2023/09/07 16:37:02;;;;;;;;;;;29.60;98.90;;;;;;21156852;28;19950;-76
2023/09/07 16:47:02;;;;;;;;;;;29.40;99.90;;;;;;21132271;28;19951;-76
2023/09/07 16:57:03;;;;;;;;;;;29.00;99.90;;;;;;21162148;28;20418;-74
2023/09/07 17:07:04;;;;;;;;;;;28.20;99.90;;;;;;21163722;28;20351;-76
2023/09/07 17:17:05;;;;;;;;;;;27.70;99.90;;;;;;21180898;28;19918;-75
2023/09/07 17:27:06;;;;;;;;;;;27.30;99.90;;;;;;21172225;28;19923;-75
2023/09/07 17:37:07;;;;;;;;;;;26.70;99.90;;;;;;21163237;28;20379;-75
2023/09/07 17:47:07;;;;;;;;;;;26.50;99.90;;;;;;21125455;28;19915;-75
2023/09/07 17:57:08;;;;;;;;;;;26.10;99.90;;;;;;21154639;28;19912;-75
2023/09/07 18:07:08;;;;;;;;;;;25.00;99.90;;;;;;21157051;28;20396;-75
2023/09/07 18:17:09;;;;;;;;;;;24.50;99.90;;;;;;21124336;28;19912;-75
2023/09/07 18:27:11;;;;;;;;;;;23.40;99.90;;;;;;21120788;28;19919;-74
2023/09/07 18:37:11;;;;;;;;;;;22.70;99.90;;;;;;21111886;28;19937;-75
2023/09/07 18:47:12;;;;;;;;;;;22.90;99.90;;;;;;21174226;28;20457;-75
2023/09/07 18:57:13;;;;;;;;;;;22.70;99.90;;;;;;21177114;28;19926;-74
2023/09/07 19:07:19;;;;;;;;;;;22.50;99.90;;;;;;21173614;28;20625;-75
2023/09/07 19:17:20;;;;;;;;;;;22.50;99.90;;;;;;21151679;28;19954;-75
2023/09/07 19:27:21;;;;;;;;;;;22.40;99.90;;;;;;21175442;28;19919;-75
2023/09/07 19:37:21;;;;;;;;;;;22.20;99.90;;;;;;21161138;28;19911;-75
2023/09/07 19:47:22;;;;;;;;;;;22.00;99.90;;;;;;21149106;28;19923;-75
2023/09/07 19:57:24;;;;;;;;;;;21.40;99.90;;;;;;21155189;28;19922;-74
2023/09/07 20:07:26;;;;;;;;;;;21.30;99.90;;;;;;21163582;28;19915;-74
2023/09/07 20:17:27;;;;;;;;;;;21.10;99.90;;;;;;21161202;28;19919;-74
2023/09/07 20:27:28;;;;;;;;;;;20.60;99.90;;;;;;21152566;28;20306;-74
2023/09/07 20:37:28;;;;;;;;;;;20.80;99.90;;;;;;21132980;28;19912;-75
2023/09/07 20:47:29;;;;;;;;;;;20.50;99.90;;;;;;21140454;28;20374;-75
2023/09/07 20:57:30;;;;;;;;;;;20.20;99.90;;;;;;21134154;28;19959;-75
2023/09/07 21:07:31;;;;;;;;;;;20.30;99.90;;;;;;21149446;28;20002;-75
2023/09/07 21:17:32;;;;;;;;;;;19.70;99.90;;;;;;21147502;28;19912;-75
2023/09/07 21:27:33;;;;;;;;;;;19.90;99.90;;;;;;21150101;28;19920;-74
2023/09/07 21:37:34;;;;;;;;;;;19.50;99.90;;;;;;21143829;28;19941;-75
2023/09/07 21:47:35;;;;;;;;;;;19.60;99.90;;;;;;21156694;28;20361;-75
2023/09/07 21:57:36;;;;;;;;;;;19.80;99.90;;;;;;21156429;28;19980;-75
2023/09/07 22:07:37;;;;;;;;;;;19.40;99.90;;;;;;21157680;28;19922;-75
2023/09/07 22:17:42;;;;;;;;;;;19.40;99.90;;;;;;21128886;28;19934;-74
2023/09/07 22:27:42;;;;;;;;;;;19.20;99.90;;;;;;21072416;28;19919;-74
2023/09/07 22:37:43;;;;;;;;;;;19.10;99.90;;;;;;21093911;28;19919;-75
2023/09/07 22:47:44;;;;;;;;;;;19.10;99.90;;;;;;21072492;28;19958;-74
2023/09/07 22:57:45;;;;;;;;;;;18.80;99.90;;;;;;21146640;28;19952;-74
2023/09/07 23:07:46;;;;;;;;;;;19.10;99.90;;;;;;21149944;28;19916;-74
2023/09/07 23:17:47;;;;;;;;;;;19.20;99.90;;;;;;21148257;28;19916;-76
2023/09/07 23:27:49;;;;;;;;;;;19.00;99.90;;;;;;21174197;28;19915;-75
2023/09/07 23:37:50;;;;;;;;;;;19.00;99.90;;;;;;21170178;28;19917;-74
2023/09/07 23:47:51;;;;;;;;;;;18.70;99.90;;;;;;21167903;28;19916;-75
2023/09/07 23:57:53;;;;;;;;;;;18.50;99.90;;;;;;21169067;28;19912;-74
